createdAt,value
2022-12-19T00:02:12.562Z,102249.52
2022-12-19T00:07:15.490Z,102251.86
2022-12-19T00:12:19.383Z,102242.42
2022-12-19T00:17:23.140Z,102230.33
2022-12-19T00:22:26.349Z,102229.83
2022-12-19T00:27:29.196Z,102222.45
2022-12-19T00:32:32.054Z,102220.77
2022-12-19T00:37:35.235Z,102224.11
2022-12-19T00:42:40.346Z,102216.98
2022-12-19T00:47:43.166Z,102211.98
2022-12-19T00:52:46.054Z,102211.28
2022-12-19T00:57:49.914Z,102204.83
2022-12-19T01:02:55.400Z,102208.26
2022-12-19T01:07:58.372Z,102199.49
2022-12-19T01:13:01.237Z,102193.16
2022-12-19T01:18:04.125Z,102189.63
2022-12-19T01:23:08.151Z,102187.08
2022-12-19T01:28:14.806Z,102185.77
2022-12-19T01:33:20.973Z,102176.77
2022-12-19T01:38:23.828Z,102176.05
2022-12-19T01:43:30.565Z,102168.33
2022-12-19T01:48:40.008Z,102167.77
2022-12-19T01:53:49.174Z,102158.96
2022-12-19T01:59:05.971Z,102140.68
2022-12-19T02:04:10.546Z,102138.34
2022-12-19T02:09:13.727Z,102137.52
2022-12-19T02:14:16.710Z,102137.42
2022-12-19T02:19:19.510Z,102138.33
2022-12-19T02:24:36.799Z,102133.14
2022-12-19T02:29:49.585Z,102129.84
2022-12-19T02:35:13.716Z,102115.77
2022-12-19T02:40:24.386Z,102114.19
2022-12-19T02:45:33.856Z,102104.98
2022-12-19T02:50:39.040Z,102100.48
2022-12-19T02:56:14.138Z,102086.46
2022-12-19T03:01:29.372Z,102070.79
2022-12-19T03:06:45.178Z,102066.48
2022-12-19T03:11:56.134Z,102054.46
2022-12-19T03:17:04.845Z,102054.51
2022-12-19T03:22:08.488Z,102048.56
2022-12-19T03:27:39.448Z,102031.58
2022-12-19T03:32:46.806Z,102028.13
2022-12-19T03:37:52.184Z,102028.17
2022-12-19T03:43:09.690Z,102034.40
2022-12-19T03:48:43.445Z,102042.53
2022-12-19T03:53:56.476Z,102041.60
2022-12-19T03:59:09.985Z,102041.08
2022-12-19T04:04:14.854Z,102035.52
2022-12-19T04:09:22.663Z,102039.15
2022-12-19T04:14:31.924Z,102048.63
2022-12-19T04:19:48.079Z,102058.10
2022-12-19T04:24:54.118Z,102048.54
2022-12-19T04:29:59.361Z,102048.85
2022-12-19T04:35:03.093Z,102036.85
2022-12-19T04:40:08.338Z,102034.54
2022-12-19T04:45:11.410Z,102024.05
2022-12-19T04:50:14.594Z,102023.91
2022-12-19T04:55:17.580Z,102016.22
2022-12-19T05:00:20.430Z,102020.51
2022-12-19T05:05:23.467Z,102018.38
2022-12-19T05:10:26.350Z,102013.65
2022-12-19T05:15:29.203Z,102013.11
2022-12-19T05:20:32.214Z,102006.61
2022-12-19T05:25:36.204Z,101996.52
2022-12-19T05:30:39.703Z,101996.87
2022-12-19T05:35:42.641Z,101993.14
2022-12-19T05:40:45.699Z,101988.34
2022-12-19T05:45:48.927Z,101994.01
2022-12-19T05:50:51.836Z,101993.67
2022-12-19T05:56:04.697Z,101995.46
2022-12-19T06:01:20.208Z,101989.85
2022-12-19T06:06:26.184Z,101980.75
2022-12-19T06:11:29.336Z,101974.89
2022-12-19T06:16:32.300Z,101971.23
2022-12-19T06:21:35.335Z,101970.92
2022-12-19T06:26:38.166Z,101967.64
2022-12-19T06:31:41.015Z,101972.24
2022-12-19T06:36:43.909Z,101969.41
2022-12-19T06:42:05.423Z,101972.35
2022-12-19T06:47:08.322Z,101972.64
2022-12-19T06:52:11.216Z,101980.31
2022-12-19T06:57:14.097Z,101973.30
2022-12-19T07:02:30.293Z,101967.69
2022-12-19T07:07:33.781Z,101962.67
2022-12-19T07:12:37.074Z,101966.20
2022-12-19T07:17:40.414Z,101957.02
2022-12-19T07:22:43.989Z,101955.10
2022-12-19T07:27:47.853Z,101940.46
2022-12-19T07:32:50.713Z,101941.80
2022-12-19T07:37:53.705Z,101936.06
2022-12-19T07:43:00.542Z,101931.52
2022-12-19T07:48:04.616Z,101933.29
2022-12-19T07:53:07.511Z,101916.98
2022-12-19T07:58:13.035Z,101911.33
2022-12-19T08:03:15.901Z,101907.54
2022-12-19T08:08:18.911Z,101896.45
2022-12-19T08:13:21.735Z,101884.09
2022-12-19T08:18:26.441Z,101877.80
2022-12-19T08:23:29.544Z,101871.70
2022-12-19T08:28:33.921Z,101864.84
2022-12-19T08:33:37.395Z,101865.74
2022-12-19T08:38:40.958Z,101860.32
2022-12-19T08:43:49.463Z,101853.64
2022-12-19T08:48:52.289Z,101854.38
2022-12-19T08:53:55.175Z,101852.23
2022-12-19T08:58:58.004Z,101839.80
2022-12-19T09:05:07.778Z,101843.55
2022-12-19T09:09:23.920Z,101833.54
2022-12-19T09:14:26.836Z,101825.02
2022-12-19T09:19:29.701Z,101809.02
2022-12-19T09:24:33.038Z,101810.38
2022-12-19T09:29:36.055Z,101788.06
2022-12-19T09:34:39.297Z,101781.70
2022-12-19T09:39:42.209Z,101770.10
2022-12-19T09:45:06.984Z,101762.72
2022-12-19T09:50:33.130Z,101732.17
2022-12-19T09:55:40.823Z,101729.69
2022-12-19T10:00:47.364Z,101725.26
2022-12-19T10:06:49.249Z,101709.96
2022-12-19T10:12:39.411Z,101681.42
2022-12-19T10:17:35.023Z,101675.14
2022-12-19T10:23:04.693Z,101671.73
2022-12-19T10:28:39.267Z,101663.64
2022-12-19T10:33:58.591Z,101662.77
2022-12-19T10:39:15.241Z,101654.52
2022-12-19T10:44:19.229Z,101636.60
2022-12-19T10:49:28.477Z,101624.30
2022-12-19T10:54:37.534Z,101615.69
2022-12-19T10:59:40.439Z,101594.54
2022-12-19T11:04:46.977Z,101592.59
2022-12-19T11:10:16.189Z,101586.88
2022-12-19T11:20:16.794Z,101577.27
2022-12-19T11:29:30.141Z,101572.54
2022-12-19T11:30:48.855Z,101558.98
2022-12-19T11:36:52.641Z,101544.64
2022-12-19T11:42:11.399Z,101521.88
2022-12-19T11:47:33.904Z,101508.20
2022-12-19T11:58:04.675Z,101481.95
2022-12-19T12:03:41.620Z,101481.36
2022-12-19T12:16:09.450Z,101477.55
2022-12-19T12:24:23.237Z,101465.89
2022-12-19T12:31:05.881Z,101470.47
2022-12-19T12:31:20.456Z,101471.83
2022-12-19T12:35:30.668Z,101462.39
2022-12-19T12:38:19.074Z,101472.02
2022-12-19T12:43:31.740Z,101454.61
2022-12-19T12:48:43.115Z,101437.55
2022-12-19T12:53:48.374Z,101423.99
2022-12-19T12:58:54.628Z,101408.77
2022-12-19T13:04:12.677Z,101404.21
2022-12-19T13:09:28.029Z,101400.00
2022-12-19T13:14:39.471Z,101391.32
2022-12-19T13:19:57.183Z,101387.95
2022-12-19T13:25:01.222Z,101383.25
2022-12-19T13:30:15.946Z,101361.52
2022-12-19T13:36:49.995Z,101354.66
2022-12-19T13:40:44.990Z,101349.09
2022-12-19T13:46:03.716Z,101337.16
2022-12-19T13:51:08.724Z,101326.40
2022-12-19T13:56:17.881Z,101318.80
2022-12-19T14:01:28.330Z,101310.96
2022-12-19T14:06:42.938Z,101297.75
2022-12-19T14:12:26.484Z,101292.02
2022-12-19T14:17:13.561Z,101277.42
2022-12-19T14:22:25.199Z,101273.38
2022-12-19T14:28:21.570Z,101266.23
2022-12-19T14:33:44.325Z,101272.58
2022-12-19T14:39:24.523Z,101265.75
2022-12-19T14:52:35.958Z,101255.73
2022-12-19T14:54:10.727Z,101260.98
2022-12-19T14:55:58.912Z,101263.84
2022-12-19T15:01:10.040Z,101245.02
2022-12-19T15:06:32.211Z,101229.36
2022-12-19T15:14:50.492Z,101223.55
2022-12-19T15:17:49.113Z,101196.85
2022-12-19T15:22:51.957Z,101191.21
2022-12-19T15:27:55.310Z,101177.92
2022-12-19T15:32:58.392Z,101167.20
2022-12-19T15:38:01.297Z,101163.55
2022-12-19T15:43:04.972Z,101163.38
2022-12-19T15:48:13.875Z,101156.70
2022-12-19T15:53:39.983Z,101147.45
2022-12-19T15:58:43.776Z,101143.97
2022-12-19T16:03:47.685Z,101136.30
2022-12-19T16:08:50.643Z,101134.42
2022-12-19T16:13:56.921Z,101123.67
2022-12-19T16:18:59.758Z,101113.63
2022-12-19T16:24:02.631Z,101101.75
2022-12-19T16:29:06.654Z,101091.71
2022-12-19T16:34:17.216Z,101078.05
2022-12-19T16:39:20.163Z,101070.83
2022-12-19T16:44:23.871Z,101054.71
2022-12-19T16:49:28.119Z,101056.63
2022-12-19T16:54:31.039Z,101064.50
2022-12-19T16:59:40.175Z,101044.28
2022-12-19T17:04:46.349Z,101046.16
2022-12-19T17:09:51.856Z,101044.33
2022-12-19T17:14:54.848Z,101039.24
2022-12-19T17:19:57.685Z,101053.67
2022-12-19T17:25:00.773Z,101048.27
2022-12-19T17:30:03.979Z,101043.19
2022-12-19T17:35:07.132Z,101032.14
2022-12-19T17:40:31.581Z,101031.98
2022-12-19T17:45:35.064Z,101019.30
2022-12-19T17:50:40.060Z,101012.57
2022-12-19T17:55:43.593Z,101010.90
2022-12-19T18:00:47.463Z,100991.04
2022-12-19T18:05:53.354Z,100990.92
2022-12-19T18:10:59.036Z,100989.44
2022-12-19T18:16:03.787Z,100987.96
2022-12-19T18:21:06.946Z,100992.09
2022-12-19T18:26:12.040Z,100982.60
2022-12-19T18:31:18.919Z,100957.45
2022-12-19T18:36:24.857Z,100935.85
2022-12-19T18:41:27.782Z,100924.64
2022-12-19T18:46:32.049Z,100918.35
2022-12-19T18:51:34.966Z,100902.53
2022-12-19T18:56:37.801Z,100899.69
2022-12-19T19:01:46.942Z,100895.45
2022-12-19T19:06:52.635Z,100889.52
2022-12-19T19:11:55.734Z,100885.95
2022-12-19T19:16:58.702Z,100887.50
2022-12-19T19:22:01.659Z,100885.84
2022-12-19T19:27:04.591Z,100884.17
2022-12-19T19:32:07.749Z,100856.31
2022-12-19T19:37:13.893Z,100850.27
2022-12-19T19:42:18.808Z,100845.95
2022-12-19T19:47:28.779Z,100828.25
2022-12-19T19:52:31.559Z,100808.20
2022-12-19T19:57:34.813Z,100796.48
2022-12-19T20:02:37.935Z,100781.36
2022-12-19T20:07:41.276Z,100781.52
2022-12-19T20:12:44.174Z,100768.08
2022-12-19T20:17:47.086Z,100759.24
2022-12-19T20:22:50.044Z,100743.91
2022-12-19T20:27:52.891Z,100736.41
2022-12-19T20:32:55.723Z,100734.19
2022-12-19T20:37:58.573Z,100734.34
2022-12-19T20:43:02.265Z,100737.08
2022-12-19T20:48:05.284Z,100743.21
2022-12-19T20:53:08.475Z,100747.79
2022-12-19T20:58:11.298Z,100740.61
2022-12-19T21:03:28.067Z,100734.13
2022-12-19T21:08:32.522Z,100724.55
2022-12-19T21:13:36.624Z,100719.09
2022-12-19T21:18:41.393Z,100717.58
2022-12-19T21:23:45.007Z,100706.17
2022-12-19T21:28:47.915Z,100689.14
2022-12-19T21:33:54.706Z,100675.67
2022-12-19T21:39:00.099Z,100672.61
2022-12-19T21:44:03.135Z,100666.80
2022-12-19T21:49:08.496Z,100660.66
2022-12-19T21:54:11.364Z,100656.23
2022-12-19T21:59:16.598Z,100654.05
2022-12-19T22:04:22.240Z,100651.02
2022-12-19T22:09:25.235Z,100634.10
2022-12-19T22:14:28.221Z,100626.42
2022-12-19T22:19:31.511Z,100612.06
2022-12-19T22:24:34.420Z,100604.04
2022-12-19T22:29:37.535Z,100594.80
2022-12-19T22:34:40.357Z,100587.61
2022-12-19T22:39:43.275Z,100583.50
2022-12-19T22:44:46.188Z,100580.75
2022-12-19T22:49:52.776Z,100561.91
2022-12-19T22:54:55.678Z,100558.11
2022-12-19T22:59:58.540Z,100554.33
2022-12-19T23:05:01.355Z,100557.02
2022-12-19T23:10:04.596Z,100546.69
2022-12-19T23:15:07.766Z,100526.79
2022-12-19T23:20:11.451Z,100523.11
2022-12-19T23:25:14.294Z,100517.71
2022-12-19T23:30:17.181Z,100515.91
2022-12-19T23:35:20.037Z,100506.41
2022-12-19T23:40:22.924Z,100505.16
2022-12-19T23:45:25.790Z,100499.29
2022-12-19T23:50:28.769Z,100486.75
2022-12-19T23:55:31.581Z,100483.26
